sensor_id;sensor_type;location;lat;lon;timestamp;temperature;humidity
24207;DHT22;12351;52.284;9.160;2022-10-10T00:00:33;11.00;99.90
24207;DHT22;12351;52.284;9.160;2022-10-10T00:03:23;11.00;99.90
24207;DHT22;12351;52.284;9.160;2022-10-10T00:06:17;10.90;99.90
24207;DHT22;12351;52.284;9.160;2022-10-10T00:09:08;10.90;99.90
24207;DHT22;12351;52.284;9.160;2022-10-10T00:11:59;10.80;99.90
24207;DHT22;12351;52.284;9.160;2022-10-10T00:14:48;10.90;99.90
24207;DHT22;12351;52.284;9.160;2022-10-10T00:17:39;10.80;99.90
24207;DHT22;12351;52.284;9.160;2022-10-10T00:20:32;10.80;99.90
24207;DHT22;12351;52.284;9.160;2022-10-10T00:23:20;10.80;99.90
24207;DHT22;12351;52.284;9.160;2022-10-10T00:26:13;10.80;99.90
24207;DHT22;12351;52.284;9.160;2022-10-10T00:29:05;10.80;99.90
24207;DHT22;12351;52.284;9.160;2022-10-10T00:31:54;10.80;99.90
24207;DHT22;12351;52.284;9.160;2022-10-10T00:34:44;10.80;99.90
24207;DHT22;12351;52.284;9.160;2022-10-10T00:37:33;10.80;99.90
24207;DHT22;12351;52.284;9.160;2022-10-10T00:40:27;10.80;99.90
24207;DHT22;12351;52.284;9.160;2022-10-10T00:43:19;10.80;99.90
24207;DHT22;12351;52.284;9.160;2022-10-10T00:46:06;10.80;99.90
24207;DHT22;12351;52.284;9.160;2022-10-10T00:48:55;10.70;99.90
24207;DHT22;12351;52.284;9.160;2022-10-10T00:51:47;10.80;99.90
24207;DHT22;12351;52.284;9.160;2022-10-10T00:54:39;10.70;99.90
24207;DHT22;12351;52.284;9.160;2022-10-10T00:57:28;10.70;99.90
24207;DHT22;12351;52.284;9.160;2022-10-10T01:00:17;10.70;99.90
24207;DHT22;12351;52.284;9.160;2022-10-10T01:03:07;10.70;99.90
24207;DHT22;12351;52.284;9.160;2022-10-10T01:05:57;10.70;99.90
24207;DHT22;12351;52.284;9.160;2022-10-10T01:08:45;10.70;99.90
24207;DHT22;12351;52.284;9.160;2022-10-10T01:11:43;10.70;99.90
24207;DHT22;12351;52.284;9.160;2022-10-10T01:17:23;10.70;99.90
24207;DHT22;12351;52.284;9.160;2022-10-10T01:31:25;10.70;99.90
24207;DHT22;12351;52.284;9.160;2022-10-10T01:34:19;10.70;99.90
24207;DHT22;12351;52.284;9.160;2022-10-10T01:39:58;10.70;99.90
24207;DHT22;12351;52.284;9.160;2022-10-10T01:42:47;10.80;99.90
24207;DHT22;12351;52.284;9.160;2022-10-10T01:45:36;10.70;99.90
24207;DHT22;12351;52.284;9.160;2022-10-10T01:48:29;10.70;99.90
24207;DHT22;12351;52.284;9.160;2022-10-10T01:54:14;10.70;99.90
24207;DHT22;12351;52.284;9.160;2022-10-10T01:57:04;10.70;99.90
24207;DHT22;12351;52.284;9.160;2022-10-10T02:08:30;10.70;99.90
24207;DHT22;12351;52.284;9.160;2022-10-10T02:11:13;10.70;99.90
24207;DHT22;12351;52.284;9.160;2022-10-10T02:14:07;10.70;99.90
24207;DHT22;12351;52.284;9.160;2022-10-10T02:16:54;10.70;99.90
24207;DHT22;12351;52.284;9.160;2022-10-10T02:19:48;10.70;99.90
24207;DHT22;12351;52.284;9.160;2022-10-10T02:22:38;10.60;99.90
24207;DHT22;12351;52.284;9.160;2022-10-10T02:25:30;10.70;99.90
24207;DHT22;12351;52.284;9.160;2022-10-10T02:28:22;10.80;99.90
24207;DHT22;12351;52.284;9.160;2022-10-10T02:31:11;10.70;99.90
24207;DHT22;12351;52.284;9.160;2022-10-10T02:34:03;10.80;99.90
24207;DHT22;12351;52.284;9.160;2022-10-10T02:36:53;10.70;99.90
24207;DHT22;12351;52.284;9.160;2022-10-10T02:39:45;10.80;99.90
24207;DHT22;12351;52.284;9.160;2022-10-10T02:42:33;10.80;99.90
24207;DHT22;12351;52.284;9.160;2022-10-10T02:45:25;10.80;99.90
24207;DHT22;12351;52.284;9.160;2022-10-10T02:48:13;10.80;99.90
24207;DHT22;12351;52.284;9.160;2022-10-10T02:51:04;10.80;99.90
24207;DHT22;12351;52.284;9.160;2022-10-10T02:53:53;10.70;99.90
24207;DHT22;12351;52.284;9.160;2022-10-10T02:56:42;10.70;99.90
24207;DHT22;12351;52.284;9.160;2022-10-10T02:59:32;10.70;99.90
24207;DHT22;12351;52.284;9.160;2022-10-10T03:02:24;10.70;99.90
24207;DHT22;12351;52.284;9.160;2022-10-10T03:05:13;10.70;99.90
24207;DHT22;12351;52.284;9.160;2022-10-10T03:08:00;10.70;99.90
24207;DHT22;12351;52.284;9.160;2022-10-10T03:13:41;10.70;99.90
24207;DHT22;12351;52.284;9.160;2022-10-10T03:16:31;10.70;99.90
24207;DHT22;12351;52.284;9.160;2022-10-10T03:19:24;10.70;99.90
24207;DHT22;12351;52.284;9.160;2022-10-10T03:22:15;10.70;99.90
24207;DHT22;12351;52.284;9.160;2022-10-10T03:25:06;10.70;99.90
24207;DHT22;12351;52.284;9.160;2022-10-10T03:27:56;10.70;99.90
24207;DHT22;12351;52.284;9.160;2022-10-10T03:30:48;10.60;99.90
24207;DHT22;12351;52.284;9.160;2022-10-10T03:33:38;10.60;99.90
24207;DHT22;12351;52.284;9.160;2022-10-10T03:36:28;10.60;99.90
24207;DHT22;12351;52.284;9.160;2022-10-10T03:39:18;10.60;99.90
24207;DHT22;12351;52.284;9.160;2022-10-10T03:42:11;10.60;99.90
24207;DHT22;12351;52.284;9.160;2022-10-10T03:45:02;10.60;99.90
24207;DHT22;12351;52.284;9.160;2022-10-10T03:47:50;10.60;99.90
24207;DHT22;12351;52.284;9.160;2022-10-10T03:50:40;10.50;99.90
24207;DHT22;12351;52.284;9.160;2022-10-10T03:53:33;10.50;99.90
24207;DHT22;12351;52.284;9.160;2022-10-10T03:56:24;10.50;99.90
24207;DHT22;12351;52.284;9.160;2022-10-10T04:02:06;10.40;99.90
24207;DHT22;12351;52.284;9.160;2022-10-10T04:04:53;10.40;99.90
24207;DHT22;12351;52.284;9.160;2022-10-10T04:07:43;10.40;99.90
24207;DHT22;12351;52.284;9.160;2022-10-10T04:10:32;10.40;99.90
24207;DHT22;12351;52.284;9.160;2022-10-10T04:13:25;10.40;99.90
24207;DHT22;12351;52.284;9.160;2022-10-10T04:16:14;10.40;99.90
24207;DHT22;12351;52.284;9.160;2022-10-10T04:19:03;10.30;99.90
24207;DHT22;12351;52.284;9.160;2022-10-10T04:21:55;10.30;99.90
24207;DHT22;12351;52.284;9.160;2022-10-10T04:24:49;10.30;99.90
24207;DHT22;12351;52.284;9.160;2022-10-10T04:27:38;10.30;99.90
24207;DHT22;12351;52.284;9.160;2022-10-10T04:30:31;10.30;99.90
24207;DHT22;12351;52.284;9.160;2022-10-10T04:33:22;10.20;99.90
24207;DHT22;12351;52.284;9.160;2022-10-10T04:36:13;10.30;99.90
24207;DHT22;12351;52.284;9.160;2022-10-10T04:39:06;10.20;99.90
24207;DHT22;12351;52.284;9.160;2022-10-10T04:41:56;10.10;99.90
24207;DHT22;12351;52.284;9.160;2022-10-10T04:44:45;10.10;99.90
24207;DHT22;12351;52.284;9.160;2022-10-10T04:47:35;10.10;99.90
24207;DHT22;12351;52.284;9.160;2022-10-10T04:50:26;10.20;99.90
24207;DHT22;12351;52.284;9.160;2022-10-10T04:53:16;10.20;99.90
24207;DHT22;12351;52.284;9.160;2022-10-10T04:56:09;10.20;99.90
24207;DHT22;12351;52.284;9.160;2022-10-10T04:59:01;10.20;99.90
24207;DHT22;12351;52.284;9.160;2022-10-10T05:01:54;10.20;99.90
24207;DHT22;12351;52.284;9.160;2022-10-10T05:04:44;10.20;99.90
24207;DHT22;12351;52.284;9.160;2022-10-10T05:07:33;10.20;99.90
24207;DHT22;12351;52.284;9.160;2022-10-10T05:10:23;10.20;99.90
24207;DHT22;12351;52.284;9.160;2022-10-10T05:13:16;10.10;99.90
24207;DHT22;12351;52.284;9.160;2022-10-10T05:16:07;10.20;99.90
24207;DHT22;12351;52.284;9.160;2022-10-10T05:18:58;10.20;99.90
24207;DHT22;12351;52.284;9.160;2022-10-10T05:21:48;10.20;99.90
24207;DHT22;12351;52.284;9.160;2022-10-10T05:24:36;10.20;99.90
24207;DHT22;12351;52.284;9.160;2022-10-10T05:27:27;10.30;99.90
24207;DHT22;12351;52.284;9.160;2022-10-10T05:30:21;10.30;99.90
24207;DHT22;12351;52.284;9.160;2022-10-10T05:33:10;10.30;99.90
24207;DHT22;12351;52.284;9.160;2022-10-10T05:36:04;10.30;99.90
24207;DHT22;12351;52.284;9.160;2022-10-10T05:38:55;10.20;99.90
24207;DHT22;12351;52.284;9.160;2022-10-10T05:41:48;10.30;99.90
24207;DHT22;12351;52.284;9.160;2022-10-10T05:44:37;10.30;99.90
24207;DHT22;12351;52.284;9.160;2022-10-10T05:47:27;10.30;99.90
24207;DHT22;12351;52.284;9.160;2022-10-10T05:50:24;10.40;99.90
24207;DHT22;12351;52.284;9.160;2022-10-10T05:53:10;10.30;99.90
24207;DHT22;12351;52.284;9.160;2022-10-10T05:56:01;10.30;99.90
24207;DHT22;12351;52.284;9.160;2022-10-10T05:58:51;10.30;99.90
24207;DHT22;12351;52.284;9.160;2022-10-10T06:01:40;10.50;99.90
24207;DHT22;12351;52.284;9.160;2022-10-10T06:04:31;10.50;99.90
24207;DHT22;12351;52.284;9.160;2022-10-10T06:07:24;10.50;99.90
24207;DHT22;12351;52.284;9.160;2022-10-10T06:10:15;10.40;99.90
24207;DHT22;12351;52.284;9.160;2022-10-10T06:13:06;10.50;99.90
24207;DHT22;12351;52.284;9.160;2022-10-10T06:15:55;10.50;99.90
24207;DHT22;12351;52.284;9.160;2022-10-10T06:18:44;10.50;99.90
24207;DHT22;12351;52.284;9.160;2022-10-10T06:21:35;10.50;99.90
24207;DHT22;12351;52.284;9.160;2022-10-10T06:24:24;10.40;99.90
24207;DHT22;12351;52.284;9.160;2022-10-10T06:27:16;10.40;99.90
24207;DHT22;12351;52.284;9.160;2022-10-10T06:30:06;10.30;99.90
24207;DHT22;12351;52.284;9.160;2022-10-10T06:32:58;10.30;99.90
24207;DHT22;12351;52.284;9.160;2022-10-10T06:35:48;10.40;99.90
24207;DHT22;12351;52.284;9.160;2022-10-10T06:38:39;10.60;99.90
24207;DHT22;12351;52.284;9.160;2022-10-10T06:41:32;10.60;99.90
24207;DHT22;12351;52.284;9.160;2022-10-10T06:44:22;10.70;99.90
24207;DHT22;12351;52.284;9.160;2022-10-10T06:47:12;10.80;99.90
24207;DHT22;12351;52.284;9.160;2022-10-10T06:50:03;10.90;99.90
24207;DHT22;12351;52.284;9.160;2022-10-10T06:52:52;10.80;99.90
24207;DHT22;12351;52.284;9.160;2022-10-10T06:55:45;10.90;99.90
24207;DHT22;12351;52.284;9.160;2022-10-10T06:58:34;11.00;99.90
24207;DHT22;12351;52.284;9.160;2022-10-10T07:01:26;11.10;99.90
24207;DHT22;12351;52.284;9.160;2022-10-10T07:04:15;11.20;99.90
24207;DHT22;12351;52.284;9.160;2022-10-10T07:07:08;11.30;99.90
24207;DHT22;12351;52.284;9.160;2022-10-10T07:10:01;11.30;99.90
24207;DHT22;12351;52.284;9.160;2022-10-10T07:12:52;11.40;99.90
24207;DHT22;12351;52.284;9.160;2022-10-10T07:15:42;11.40;99.90
24207;DHT22;12351;52.284;9.160;2022-10-10T07:18:32;11.30;99.90
24207;DHT22;12351;52.284;9.160;2022-10-10T07:21:22;11.50;99.90
24207;DHT22;12351;52.284;9.160;2022-10-10T07:24:12;11.60;99.90
24207;DHT22;12351;52.284;9.160;2022-10-10T07:27:06;11.50;99.90
24207;DHT22;12351;52.284;9.160;2022-10-10T07:29:54;11.70;99.90
24207;DHT22;12351;52.284;9.160;2022-10-10T07:32:46;11.70;99.90
24207;DHT22;12351;52.284;9.160;2022-10-10T07:35:34;11.80;99.90
24207;DHT22;12351;52.284;9.160;2022-10-10T07:38:25;11.80;99.90
24207;DHT22;12351;52.284;9.160;2022-10-10T07:41:18;11.90;99.90
24207;DHT22;12351;52.284;9.160;2022-10-10T07:44:09;11.80;99.90
24207;DHT22;12351;52.284;9.160;2022-10-10T07:47:00;11.90;99.90
24207;DHT22;12351;52.284;9.160;2022-10-10T07:49:50;12.00;99.90
24207;DHT22;12351;52.284;9.160;2022-10-10T07:52:43;12.20;99.90
24207;DHT22;12351;52.284;9.160;2022-10-10T07:55:33;12.30;99.90
24207;DHT22;12351;52.284;9.160;2022-10-10T07:58:23;12.20;99.90
24207;DHT22;12351;52.284;9.160;2022-10-10T08:01:15;12.40;99.90
24207;DHT22;12351;52.284;9.160;2022-10-10T08:04:07;12.50;99.90
24207;DHT22;12351;52.284;9.160;2022-10-10T08:06:58;12.30;99.90
24207;DHT22;12351;52.284;9.160;2022-10-10T08:09:45;12.30;99.90
24207;DHT22;12351;52.284;9.160;2022-10-10T08:12:34;12.40;99.90
24207;DHT22;12351;52.284;9.160;2022-10-10T08:15:22;12.50;99.90
24207;DHT22;12351;52.284;9.160;2022-10-10T08:18:11;12.50;99.90
24207;DHT22;12351;52.284;9.160;2022-10-10T08:21:02;12.40;99.90
24207;DHT22;12351;52.284;9.160;2022-10-10T08:23:52;12.50;99.90
24207;DHT22;12351;52.284;9.160;2022-10-10T08:26:40;12.60;99.90
24207;DHT22;12351;52.284;9.160;2022-10-10T08:29:32;12.80;99.90
24207;DHT22;12351;52.284;9.160;2022-10-10T08:32:22;12.70;99.90
24207;DHT22;12351;52.284;9.160;2022-10-10T08:35:12;12.90;99.90
24207;DHT22;12351;52.284;9.160;2022-10-10T08:38:01;13.00;99.90
24207;DHT22;12351;52.284;9.160;2022-10-10T08:40:52;13.10;99.90
24207;DHT22;12351;52.284;9.160;2022-10-10T08:43:46;13.10;99.90
24207;DHT22;12351;52.284;9.160;2022-10-10T08:46:35;13.20;99.90
24207;DHT22;12351;52.284;9.160;2022-10-10T08:52:12;13.40;99.90
24207;DHT22;12351;52.284;9.160;2022-10-10T08:54:59;13.50;99.90
24207;DHT22;12351;52.284;9.160;2022-10-10T09:00:46;13.60;99.90
24207;DHT22;12351;52.284;9.160;2022-10-10T09:03:36;13.60;99.90
24207;DHT22;12351;52.284;9.160;2022-10-10T09:14:52;13.90;99.90
24207;DHT22;12351;52.284;9.160;2022-10-10T09:17:44;14.10;99.90
24207;DHT22;12351;52.284;9.160;2022-10-10T09:20:35;14.00;99.90
24207;DHT22;12351;52.284;9.160;2022-10-10T09:23:22;14.10;99.90
24207;DHT22;12351;52.284;9.160;2022-10-10T09:26:12;14.10;99.90
24207;DHT22;12351;52.284;9.160;2022-10-10T09:31:56;14.20;99.90
24207;DHT22;12351;52.284;9.160;2022-10-10T09:37:39;14.30;99.90
24207;DHT22;12351;52.284;9.160;2022-10-10T09:40:30;14.40;99.90
24207;DHT22;12351;52.284;9.160;2022-10-10T09:43:21;14.50;99.90
24207;DHT22;12351;52.284;9.160;2022-10-10T09:46:10;14.60;99.90
24207;DHT22;12351;52.284;9.160;2022-10-10T09:49:02;14.60;99.90
24207;DHT22;12351;52.284;9.160;2022-10-10T09:51:50;14.70;99.90
24207;DHT22;12351;52.284;9.160;2022-10-10T09:54:42;14.70;99.90
24207;DHT22;12351;52.284;9.160;2022-10-10T09:57:34;14.80;99.90
24207;DHT22;12351;52.284;9.160;2022-10-10T10:00:26;14.90;99.90
24207;DHT22;12351;52.284;9.160;2022-10-10T10:03:17;14.90;99.90
24207;DHT22;12351;52.284;9.160;2022-10-10T10:06:12;15.10;99.90
24207;DHT22;12351;52.284;9.160;2022-10-10T10:08:59;15.10;99.90
24207;DHT22;12351;52.284;9.160;2022-10-10T10:11:52;15.10;99.90
24207;DHT22;12351;52.284;9.160;2022-10-10T10:14:42;15.30;99.90
24207;DHT22;12351;52.284;9.160;2022-10-10T10:17:32;15.20;99.90
24207;DHT22;12351;52.284;9.160;2022-10-10T10:28:56;15.40;99.90
24207;DHT22;12351;52.284;9.160;2022-10-10T10:34:41;15.70;99.90
24207;DHT22;12351;52.284;9.160;2022-10-10T10:40:24;15.70;99.90
24207;DHT22;12351;52.284;9.160;2022-10-10T10:43:17;15.60;99.90
24207;DHT22;12351;52.284;9.160;2022-10-10T10:51:52;16.10;99.90
24207;DHT22;12351;52.284;9.160;2022-10-10T11:00:18;16.20;99.90
24207;DHT22;12351;52.284;9.160;2022-10-10T11:06:02;16.30;99.90
24207;DHT22;12351;52.284;9.160;2022-10-10T11:08:53;16.40;99.90
24207;DHT22;12351;52.284;9.160;2022-10-10T11:14:36;16.50;99.90
24207;DHT22;12351;52.284;9.160;2022-10-10T11:23:07;16.70;99.90
24207;DHT22;12351;52.284;9.160;2022-10-10T11:25:59;16.80;99.90
24207;DHT22;12351;52.284;9.160;2022-10-10T11:31:39;16.70;99.90
24207;DHT22;12351;52.284;9.160;2022-10-10T11:37:18;16.70;99.90
24207;DHT22;12351;52.284;9.160;2022-10-10T11:40:17;16.80;99.90
24207;DHT22;12351;52.284;9.160;2022-10-10T11:43:01;17.00;99.90
24207;DHT22;12351;52.284;9.160;2022-10-10T11:45:54;17.00;99.90
24207;DHT22;12351;52.284;9.160;2022-10-10T11:57:24;17.10;99.90
24207;DHT22;12351;52.284;9.160;2022-10-10T12:00:14;17.10;99.90
24207;DHT22;12351;52.284;9.160;2022-10-10T12:03:06;17.30;99.90
24207;DHT22;12351;52.284;9.160;2022-10-10T12:05:56;17.30;99.90
24207;DHT22;12351;52.284;9.160;2022-10-10T12:11:36;17.60;99.90
24207;DHT22;12351;52.284;9.160;2022-10-10T12:14:28;17.70;99.90
24207;DHT22;12351;52.284;9.160;2022-10-10T12:17:18;17.70;99.90
24207;DHT22;12351;52.284;9.160;2022-10-10T12:20:10;17.70;99.90
24207;DHT22;12351;52.284;9.160;2022-10-10T12:25:51;17.70;99.90
24207;DHT22;12351;52.284;9.160;2022-10-10T12:29:11;17.50;99.90
24207;DHT22;12351;52.284;9.160;2022-10-10T12:31:34;17.70;99.90
24207;DHT22;12351;52.284;9.160;2022-10-10T12:34:38;17.70;99.90
24207;DHT22;12351;52.284;9.160;2022-10-10T12:48:37;18.30;99.90
24207;DHT22;12351;52.284;9.160;2022-10-10T12:51:29;18.30;99.90
24207;DHT22;12351;52.284;9.160;2022-10-10T12:54:20;18.50;99.90
24207;DHT22;12351;52.284;9.160;2022-10-10T13:00:05;18.30;99.90
24207;DHT22;12351;52.284;9.160;2022-10-10T13:02:54;18.20;99.90
24207;DHT22;12351;52.284;9.160;2022-10-10T13:05:43;18.10;99.90
24207;DHT22;12351;52.284;9.160;2022-10-10T13:08:39;18.00;99.90
24207;DHT22;12351;52.284;9.160;2022-10-10T13:11:29;18.10;99.90
24207;DHT22;12351;52.284;9.160;2022-10-10T13:14:19;18.00;99.90
24207;DHT22;12351;52.284;9.160;2022-10-10T13:20:04;18.10;99.90
24207;DHT22;12351;52.284;9.160;2022-10-10T13:22:58;18.50;99.90
24207;DHT22;12351;52.284;9.160;2022-10-10T13:25:47;18.60;99.90
24207;DHT22;12351;52.284;9.160;2022-10-10T13:28:41;18.50;99.90
24207;DHT22;12351;52.284;9.160;2022-10-10T13:31:29;18.60;99.90
24207;DHT22;12351;52.284;9.160;2022-10-10T13:34:21;18.40;99.90
24207;DHT22;12351;52.284;9.160;2022-10-10T13:37:12;18.30;99.90
24207;DHT22;12351;52.284;9.160;2022-10-10T13:40:00;18.40;99.90
24207;DHT22;12351;52.284;9.160;2022-10-10T13:42:48;18.30;99.90
24207;DHT22;12351;52.284;9.160;2022-10-10T13:45:43;18.10;99.90
24207;DHT22;12351;52.284;9.160;2022-10-10T13:51:17;18.00;99.90
24207;DHT22;12351;52.284;9.160;2022-10-10T13:54:38;17.90;99.90
24207;DHT22;12351;52.284;9.160;2022-10-10T13:57:00;17.90;99.90
24207;DHT22;12351;52.284;9.160;2022-10-10T13:59:57;18.00;99.90
24207;DHT22;12351;52.284;9.160;2022-10-10T14:02:39;18.00;99.90
24207;DHT22;12351;52.284;9.160;2022-10-10T14:05:30;18.00;99.90
24207;DHT22;12351;52.284;9.160;2022-10-10T14:08:20;18.00;99.90
24207;DHT22;12351;52.284;9.160;2022-10-10T14:11:12;18.00;99.90
24207;DHT22;12351;52.284;9.160;2022-10-10T14:14:00;17.90;99.90
24207;DHT22;12351;52.284;9.160;2022-10-10T14:19:36;18.00;99.90
24207;DHT22;12351;52.284;9.160;2022-10-10T14:22:28;18.00;99.90
24207;DHT22;12351;52.284;9.160;2022-10-10T14:25:19;18.10;99.90
24207;DHT22;12351;52.284;9.160;2022-10-10T14:30:59;18.00;99.90
24207;DHT22;12351;52.284;9.160;2022-10-10T14:33:46;17.90;99.90
24207;DHT22;12351;52.284;9.160;2022-10-10T14:36:36;17.90;99.90
24207;DHT22;12351;52.284;9.160;2022-10-10T14:39:24;17.80;99.90
24207;DHT22;12351;52.284;9.160;2022-10-10T14:42:16;17.80;99.90
24207;DHT22;12351;52.284;9.160;2022-10-10T14:45:06;17.60;99.90
24207;DHT22;12351;52.284;9.160;2022-10-10T14:47:57;17.60;99.90
24207;DHT22;12351;52.284;9.160;2022-10-10T14:50:49;17.60;99.90
24207;DHT22;12351;52.284;9.160;2022-10-10T14:53:38;17.50;99.90
24207;DHT22;12351;52.284;9.160;2022-10-10T14:56:25;17.50;99.90
24207;DHT22;12351;52.284;9.160;2022-10-10T14:59:17;17.40;99.90
24207;DHT22;12351;52.284;9.160;2022-10-10T15:02:06;17.50;99.90
24207;DHT22;12351;52.284;9.160;2022-10-10T15:04:54;17.40;99.90
24207;DHT22;12351;52.284;9.160;2022-10-10T15:07:44;17.30;99.90
24207;DHT22;12351;52.284;9.160;2022-10-10T15:10:33;17.30;99.90
24207;DHT22;12351;52.284;9.160;2022-10-10T15:13:24;17.20;99.90
24207;DHT22;12351;52.284;9.160;2022-10-10T15:16:15;17.20;99.90
24207;DHT22;12351;52.284;9.160;2022-10-10T15:19:05;17.20;99.90
24207;DHT22;12351;52.284;9.160;2022-10-10T15:21:54;17.10;99.90
24207;DHT22;12351;52.284;9.160;2022-10-10T15:24:45;17.10;99.90
24207;DHT22;12351;52.284;9.160;2022-10-10T15:27:35;17.10;99.90
24207;DHT22;12351;52.284;9.160;2022-10-10T15:30:22;17.10;99.90
24207;DHT22;12351;52.284;9.160;2022-10-10T15:33:14;17.00;99.90
24207;DHT22;12351;52.284;9.160;2022-10-10T15:36:06;16.90;99.90
24207;DHT22;12351;52.284;9.160;2022-10-10T15:38:54;16.90;99.90
24207;DHT22;12351;52.284;9.160;2022-10-10T15:41:46;16.90;99.90
24207;DHT22;12351;52.284;9.160;2022-10-10T15:44:36;16.80;99.90
24207;DHT22;12351;52.284;9.160;2022-10-10T15:47:26;16.80;99.90
24207;DHT22;12351;52.284;9.160;2022-10-10T15:50:16;16.70;99.90
24207;DHT22;12351;52.284;9.160;2022-10-10T15:53:06;16.80;99.90
24207;DHT22;12351;52.284;9.160;2022-10-10T15:55:57;16.70;99.90
24207;DHT22;12351;52.284;9.160;2022-10-10T15:58:50;16.70;99.90
24207;DHT22;12351;52.284;9.160;2022-10-10T16:01:39;16.60;99.90
24207;DHT22;12351;52.284;9.160;2022-10-10T16:04:32;16.60;99.90
24207;DHT22;12351;52.284;9.160;2022-10-10T16:07:24;16.50;99.90
24207;DHT22;12351;52.284;9.160;2022-10-10T16:10:13;16.50;99.90
24207;DHT22;12351;52.284;9.160;2022-10-10T16:13:06;16.50;99.90
24207;DHT22;12351;52.284;9.160;2022-10-10T16:15:57;16.50;99.90
24207;DHT22;12351;52.284;9.160;2022-10-10T16:18:46;16.50;99.90
24207;DHT22;12351;52.284;9.160;2022-10-10T16:21:38;16.50;99.90
24207;DHT22;12351;52.284;9.160;2022-10-10T16:24:26;16.40;99.90
24207;DHT22;12351;52.284;9.160;2022-10-10T16:27:19;16.30;99.90
24207;DHT22;12351;52.284;9.160;2022-10-10T16:30:11;16.30;99.90
24207;DHT22;12351;52.284;9.160;2022-10-10T16:33:00;16.00;99.90
24207;DHT22;12351;52.284;9.160;2022-10-10T16:35:47;15.90;99.90
24207;DHT22;12351;52.284;9.160;2022-10-10T16:38:39;15.70;99.90
24207;DHT22;12351;52.284;9.160;2022-10-10T16:41:30;15.60;99.90
24207;DHT22;12351;52.284;9.160;2022-10-10T16:44:21;15.50;99.90
24207;DHT22;12351;52.284;9.160;2022-10-10T16:47:12;15.50;99.90
24207;DHT22;12351;52.284;9.160;2022-10-10T16:50:03;15.50;99.90
24207;DHT22;12351;52.284;9.160;2022-10-10T16:52:52;15.40;99.90
24207;DHT22;12351;52.284;9.160;2022-10-10T16:55:42;15.30;99.90
24207;DHT22;12351;52.284;9.160;2022-10-10T16:58:32;15.20;99.90
24207;DHT22;12351;52.284;9.160;2022-10-10T17:01:23;15.10;99.90
24207;DHT22;12351;52.284;9.160;2022-10-10T17:04:13;15.00;99.90
24207;DHT22;12351;52.284;9.160;2022-10-10T17:07:05;15.00;99.90
24207;DHT22;12351;52.284;9.160;2022-10-10T17:09:55;15.00;99.90
24207;DHT22;12351;52.284;9.160;2022-10-10T17:12:46;14.90;99.90
24207;DHT22;12351;52.284;9.160;2022-10-10T17:15:38;14.90;99.90
24207;DHT22;12351;52.284;9.160;2022-10-10T17:18:27;14.90;99.90
24207;DHT22;12351;52.284;9.160;2022-10-10T17:21:18;14.70;99.90
24207;DHT22;12351;52.284;9.160;2022-10-10T17:24:08;14.70;99.90
24207;DHT22;12351;52.284;9.160;2022-10-10T17:26:59;14.60;99.90
24207;DHT22;12351;52.284;9.160;2022-10-10T17:32:41;14.60;99.90
24207;DHT22;12351;52.284;9.160;2022-10-10T17:35:31;14.50;99.90
24207;DHT22;12351;52.284;9.160;2022-10-10T17:38:24;14.50;99.90
24207;DHT22;12351;52.284;9.160;2022-10-10T17:41:16;14.50;99.90
24207;DHT22;12351;52.284;9.160;2022-10-10T17:44:05;14.40;99.90
24207;DHT22;12351;52.284;9.160;2022-10-10T17:46:58;14.40;99.90
24207;DHT22;12351;52.284;9.160;2022-10-10T17:49:52;14.40;99.90
24207;DHT22;12351;52.284;9.160;2022-10-10T17:52:43;14.40;99.90
24207;DHT22;12351;52.284;9.160;2022-10-10T17:55:39;14.30;99.90
24207;DHT22;12351;52.284;9.160;2022-10-10T17:58:27;14.20;99.90
24207;DHT22;12351;52.284;9.160;2022-10-10T18:01:19;14.10;99.90
24207;DHT22;12351;52.284;9.160;2022-10-10T18:04:10;14.00;99.90
24207;DHT22;12351;52.284;9.160;2022-10-10T18:06:59;14.00;99.90
24207;DHT22;12351;52.284;9.160;2022-10-10T18:09:50;14.00;99.90
24207;DHT22;12351;52.284;9.160;2022-10-10T18:12:39;13.90;99.90
24207;DHT22;12351;52.284;9.160;2022-10-10T18:15:29;13.80;99.90
24207;DHT22;12351;52.284;9.160;2022-10-10T18:18:19;13.70;99.90
24207;DHT22;12351;52.284;9.160;2022-10-10T18:21:11;13.70;99.90
24207;DHT22;12351;52.284;9.160;2022-10-10T18:24:04;13.70;99.90
24207;DHT22;12351;52.284;9.160;2022-10-10T18:26:55;13.60;99.90
24207;DHT22;12351;52.284;9.160;2022-10-10T18:29:46;13.40;99.90
24207;DHT22;12351;52.284;9.160;2022-10-10T18:32:36;13.30;99.90
24207;DHT22;12351;52.284;9.160;2022-10-10T18:35:24;13.30;99.90
24207;DHT22;12351;52.284;9.160;2022-10-10T18:38:13;13.30;99.90
24207;DHT22;12351;52.284;9.160;2022-10-10T18:41:04;13.30;99.90
24207;DHT22;12351;52.284;9.160;2022-10-10T18:43:57;13.10;99.90
24207;DHT22;12351;52.284;9.160;2022-10-10T18:46:49;13.00;99.90
24207;DHT22;12351;52.284;9.160;2022-10-10T18:49:40;12.90;99.90
24207;DHT22;12351;52.284;9.160;2022-10-10T18:52:32;12.80;99.90
24207;DHT22;12351;52.284;9.160;2022-10-10T18:55:24;12.70;99.90
24207;DHT22;12351;52.284;9.160;2022-10-10T18:58:12;12.70;99.90
24207;DHT22;12351;52.284;9.160;2022-10-10T19:01:04;12.80;99.90
24207;DHT22;12351;52.284;9.160;2022-10-10T19:03:57;12.60;99.90
24207;DHT22;12351;52.284;9.160;2022-10-10T19:06:47;12.60;99.90
24207;DHT22;12351;52.284;9.160;2022-10-10T19:09:43;12.60;99.90
24207;DHT22;12351;52.284;9.160;2022-10-10T19:12:33;12.50;99.90
24207;DHT22;12351;52.284;9.160;2022-10-10T19:15:25;12.50;99.90
24207;DHT22;12351;52.284;9.160;2022-10-10T19:18:15;12.60;99.90
24207;DHT22;12351;52.284;9.160;2022-10-10T19:21:04;12.60;99.90
24207;DHT22;12351;52.284;9.160;2022-10-10T19:23:58;12.50;99.90
24207;DHT22;12351;52.284;9.160;2022-10-10T19:26:50;12.40;99.90
24207;DHT22;12351;52.284;9.160;2022-10-10T19:29:39;12.40;99.90
24207;DHT22;12351;52.284;9.160;2022-10-10T19:32:29;12.30;99.90
24207;DHT22;12351;52.284;9.160;2022-10-10T19:35:22;12.30;99.90
24207;DHT22;12351;52.284;9.160;2022-10-10T19:38:12;12.20;99.90
24207;DHT22;12351;52.284;9.160;2022-10-10T19:41:05;12.20;99.90
24207;DHT22;12351;52.284;9.160;2022-10-10T19:43:56;12.10;99.90
24207;DHT22;12351;52.284;9.160;2022-10-10T19:46:50;12.20;99.90
24207;DHT22;12351;52.284;9.160;2022-10-10T19:49:38;12.10;99.90
24207;DHT22;12351;52.284;9.160;2022-10-10T19:52:26;11.90;99.90
24207;DHT22;12351;52.284;9.160;2022-10-10T19:55:15;11.80;99.90
24207;DHT22;12351;52.284;9.160;2022-10-10T19:58:05;11.80;99.90
24207;DHT22;12351;52.284;9.160;2022-10-10T20:00:57;11.80;99.90
24207;DHT22;12351;52.284;9.160;2022-10-10T20:03:49;11.70;99.90
24207;DHT22;12351;52.284;9.160;2022-10-10T20:06:38;11.70;99.90
24207;DHT22;12351;52.284;9.160;2022-10-10T20:09:28;11.70;99.90
24207;DHT22;12351;52.284;9.160;2022-10-10T20:12:21;11.60;99.90
24207;DHT22;12351;52.284;9.160;2022-10-10T20:15:13;11.50;99.90